Plainville, KS

9:46 AM CST on November 26, 2014 (GMT -0600)
Plainville Elementary | Change Station
CLOSE
Current Station
Personal Weather Station
Location: Plainville, KS
Elevation: 2169 ft
Nearby Weather Stations

Elev 2169 ft 39.23 °N, 99.30 °W | Updated 6 seconds ago

Partly Cloudy
Partly Cloudy
35.8 °F
Feels Like 28 °F
N
12.1
Wind Variable Wind from NW
Gusts 18.3 mph

Today
High -- | Low -- °F
--% Chance of Precip.
Yesterday
High -- | Low -- °F
Precip. -- in
7:32 AM 5:16 PM
Waxing Crescent, 20% visible
Pressure 30.18 in
Visibility 10.0 miles
Clouds Few 12000 ft
Windchill 28 °F
Dew Point 19 °F
Humidity 50%
Rainfall 0.00 in
Snow Depth Not available.
UV 1 out of 12
Pollen .10 out of 12
Air Quality Not available.
Flu Activity Not available.
METAR KHYS 261535Z AUTO 34020G28KT 10SM FEW120 04/M07 A3018 RMK AO1

More Conditions Fewer Conditions

Pressure 30.18 in
Visibility 10.0 miles
Clouds Few 12000 ft
Windchill 28 °F
Dew Point 19 °F
Humidity 50%
Rainfall 0.00 in
Snow Depth Not available.
UV 1 out of 12
Pollen .10 out of 12
Air Quality Not available.
Flu Activity Not available.
METAR KHYS 261535Z AUTO 34020G28KT 10SM FEW120 04/M07 A3018 RMK AO1

More Conditions Fewer Conditions

10-Day Weather Forecast

Almanac

Astronomy

Nov. 26, 2014 Rise Set
Actual Time
Civil Twilight
Nautical Twilight
Astronomical Twilight
Moon
Length of Visible Light
Length of Day
Tomorrow will be .
, % of the Moon is Illuminated

Today's Extremes

State Highs State Lows

Community

WunderPhotos

Upload Photos

1,773,773 photos uploaded!

WunderBlogs® & News

Nearby

Air Quality

  Air Quality AQ Index Pollutant
Not available.

Snow Depth

Station Depth Elevation

Earthquake Activity

City Distance Mag. Time & Date
Minimum magnitude displayed is 2.5.

Coastal Water Temperatures

Place Temperature

Nearby Weather Stations